Anderson, Alaska
Current Conditions -  °F | °C
As of 10:53 PM on Friday 28 Nov 2014 (Local Time) from PANN Reporting Station
Overcast Overcast  
Wind Chill: -17°   Ceiling: 1900
Heat Index: -17°   Visibility: 10mi
Dew Point: -20°   Wind: 3mph
Humidity: 79%   Direction: 320°NW
Pressure: 30.17"   Gusts: NA
Location:  64.34°N, 149.19°W
Report Text: PANN 290753Z AUTO 32003KT 10SM OVC019 M17/M20 A3017 RMK AO2 SLP233 T11721200 TSNO
Loading
Personal Weather Stations






























Interactive Weather Map New forecast layout! Learn more

10-Day Weather Forecast

Advertisements
Track Severe Weather on mobile